sensor_id;sensor_type;location;lat;lon;timestamp;pressure;altitude;pressure_sealevel;temperature;humidity
20015;BME280;61787;42.022;23.078;2023-11-19T00:00:25;96733.56;;;5.40;86.57
20015;BME280;61787;42.022;23.078;2023-11-19T00:01:27;96732.00;;;5.39;86.88
20015;BME280;61787;42.022;23.078;2023-11-19T00:02:29;96730.44;;;5.38;86.83
20015;BME280;61787;42.022;23.078;2023-11-19T00:03:31;96727.28;;;5.36;86.28
20015;BME280;61787;42.022;23.078;2023-11-19T00:04:32;96733.22;;;5.33;86.26
20015;BME280;61787;42.022;23.078;2023-11-19T00:05:34;96732.72;;;5.31;86.33
20015;BME280;61787;42.022;23.078;2023-11-19T00:06:36;96733.81;;;5.30;87.37
20015;BME280;61787;42.022;23.078;2023-11-19T00:07:38;96729.09;;;5.27;87.50
20015;BME280;61787;42.022;23.078;2023-11-19T00:08:43;96739.13;;;5.30;86.29
20015;BME280;61787;42.022;23.078;2023-11-19T00:09:45;96732.72;;;5.31;87.02
20015;BME280;61787;42.022;23.078;2023-11-19T00:10:46;96731.66;;;5.32;86.49
20015;BME280;61787;42.022;23.078;2023-11-19T00:11:48;96733.22;;;5.33;87.12
20015;BME280;61787;42.022;23.078;2023-11-19T00:12:52;96735.25;;;5.36;87.24
20015;BME280;61787;42.022;23.078;2023-11-19T00:13:54;96738.72;;;5.37;87.40
20015;BME280;61787;42.022;23.078;2023-11-19T00:14:56;96746.97;;;5.35;87.30
20015;BME280;61787;42.022;23.078;2023-11-19T00:15:57;96738.53;;;5.33;88.26
20015;BME280;61787;42.022;23.078;2023-11-19T00:16:59;96744.63;;;5.34;87.69
20015;BME280;61787;42.022;23.078;2023-11-19T00:18:01;96748.06;;;5.34;87.43
20015;BME280;61787;42.022;23.078;2023-11-19T00:19:06;96753.09;;;5.36;87.53
20015;BME280;61787;42.022;23.078;2023-11-19T00:20:08;96750.72;;;5.34;87.32
20015;BME280;61787;42.022;23.078;2023-11-19T00:21:09;96754.50;;;5.33;87.75
20015;BME280;61787;42.022;23.078;2023-11-19T00:22:12;96746.50;;;5.33;87.75
20015;BME280;61787;42.022;23.078;2023-11-19T00:23:13;96752.31;;;5.35;86.44
20015;BME280;61787;42.022;23.078;2023-11-19T00:24:15;96758.41;;;5.36;87.73
20015;BME280;61787;42.022;23.078;2023-11-19T00:25:20;96766.66;;;5.34;87.64
20015;BME280;61787;42.022;23.078;2023-11-19T00:26:25;96752.31;;;5.35;88.02
20015;BME280;61787;42.022;23.078;2023-11-19T00:27:27;96755.25;;;5.34;86.91
20015;BME280;61787;42.022;23.078;2023-11-19T00:28:28;96758.59;;;5.39;87.93
20015;BME280;61787;42.022;23.078;2023-11-19T00:29:30;96749.53;;;5.40;87.43
20015;BME280;61787;42.022;23.078;2023-11-19T00:30:32;96755.63;;;5.41;86.72
20015;BME280;61787;42.022;23.078;2023-11-19T00:31:34;96758.59;;;5.39;87.10
20015;BME280;61787;42.022;23.078;2023-11-19T00:32:36;96763.13;;;5.39;86.79
20015;BME280;61787;42.022;23.078;2023-11-19T00:33:40;96762.75;;;5.32;86.64
20015;BME280;61787;42.022;23.078;2023-11-19T00:34:45;96768.88;;;5.32;86.93
20015;BME280;61787;42.022;23.078;2023-11-19T00:35:46;96770.44;;;5.33;87.13
20015;BME280;61787;42.022;23.078;2023-11-19T00:36:48;96771.69;;;5.36;87.07
20015;BME280;61787;42.022;23.078;2023-11-19T00:37:50;96764.50;;;5.36;87.27
20015;BME280;61787;42.022;23.078;2023-11-19T00:38:52;96773.56;;;5.35;85.04
20015;BME280;61787;42.022;23.078;2023-11-19T00:39:54;96775.75;;;5.33;86.10
20015;BME280;61787;42.022;23.078;2023-11-19T00:40:57;96777.63;;;5.33;86.54
20015;BME280;61787;42.022;23.078;2023-11-19T00:41:59;96775.75;;;5.33;85.82
20015;BME280;61787;42.022;23.078;2023-11-19T00:43:00;96774.19;;;5.32;85.83
20015;BME280;61787;42.022;23.078;2023-11-19T00:44:02;96770.44;;;5.33;85.87
20015;BME280;61787;42.022;23.078;2023-11-19T00:45:07;96770.56;;;5.28;86.32
20015;BME280;61787;42.022;23.078;2023-11-19T00:46:13;96776.16;;;5.27;85.79
20015;BME280;61787;42.022;23.078;2023-11-19T00:47:15;96775.88;;;5.28;86.07
20015;BME280;61787;42.022;23.078;2023-11-19T00:48:17;96785.41;;;5.29;86.66
20015;BME280;61787;42.022;23.078;2023-11-19T00:49:19;96784.91;;;5.27;86.76
20015;BME280;61787;42.022;23.078;2023-11-19T00:50:21;96781.66;;;5.30;87.00
20015;BME280;61787;42.022;23.078;2023-11-19T00:51:24;96783.22;;;5.31;87.10
20015;BME280;61787;42.022;23.078;2023-11-19T00:52:25;96781.94;;;5.29;86.18
20015;BME280;61787;42.022;23.078;2023-11-19T00:53:27;96793.38;;;5.29;85.91
20015;BME280;61787;42.022;23.078;2023-11-19T00:54:29;96786.97;;;5.30;86.49
20015;BME280;61787;42.022;23.078;2023-11-19T00:55:30;96782.44;;;5.31;85.94
20015;BME280;61787;42.022;23.078;2023-11-19T00:56:32;96786.97;;;5.30;86.19
20015;BME280;61787;42.022;23.078;2023-11-19T00:57:34;96784.81;;;5.32;86.72
20015;BME280;61787;42.022;23.078;2023-11-19T00:58:35;96777.41;;;5.29;86.23
20015;BME280;61787;42.022;23.078;2023-11-19T00:59:41;96791.81;;;5.28;86.14
20015;BME280;61787;42.022;23.078;2023-11-19T01:00:43;96784.31;;;5.30;86.73
20015;BME280;61787;42.022;23.078;2023-11-19T01:01:46;96786.69;;;5.32;86.06
20015;BME280;61787;42.022;23.078;2023-11-19T01:02:49;96789.06;;;5.33;85.60
20015;BME280;61787;42.022;23.078;2023-11-19T01:03:53;96802.91;;;5.30;86.33
20015;BME280;61787;42.022;23.078;2023-11-19T01:04:55;96801.34;;;5.29;86.17
20015;BME280;61787;42.022;23.078;2023-11-19T01:05:57;96798.41;;;5.31;85.96
20015;BME280;61787;42.022;23.078;2023-11-19T01:07:04;96788.06;;;5.29;86.12
20015;BME280;61787;42.022;23.078;2023-11-19T01:08:06;96800.25;;;5.30;86.33
20015;BME280;61787;42.022;23.078;2023-11-19T01:09:08;96801.56;;;5.33;85.84
20015;BME280;61787;42.022;23.078;2023-11-19T01:10:10;96802.91;;;5.30;85.61
20015;BME280;61787;42.022;23.078;2023-11-19T01:11:21;96797.78;;;5.34;85.15
20015;BME280;61787;42.022;23.078;2023-11-19T01:12:23;96801.72;;;5.36;85.67
20015;BME280;61787;42.022;23.078;2023-11-19T01:13:25;96803.31;;;5.37;85.37
20015;BME280;61787;42.022;23.078;2023-11-19T01:14:28;96795.91;;;5.34;85.11
20015;BME280;61787;42.022;23.078;2023-11-19T01:15:29;96795.91;;;5.34;85.54
20015;BME280;61787;42.022;23.078;2023-11-19T01:16:31;96800.44;;;5.34;85.53
20015;BME280;61787;42.022;23.078;2023-11-19T01:17:33;96800.66;;;5.37;84.90
20015;BME280;61787;42.022;23.078;2023-11-19T01:18:34;96794.25;;;5.38;85.02
20015;BME280;61787;42.022;23.078;2023-11-19T01:19:37;96794.44;;;5.42;85.15
20015;BME280;61787;42.022;23.078;2023-11-19T01:20:38;96794.59;;;5.45;85.96
20015;BME280;61787;42.022;23.078;2023-11-19T01:21:40;96805.06;;;5.42;84.72
20015;BME280;61787;42.022;23.078;2023-11-19T01:22:42;96799.75;;;5.42;85.58
20015;BME280;61787;42.022;23.078;2023-11-19T01:23:44;96799.94;;;5.45;85.35
20015;BME280;61787;42.022;23.078;2023-11-19T01:24:46;96795.69;;;5.44;84.24
20015;BME280;61787;42.022;23.078;2023-11-19T01:25:48;96802.88;;;5.44;84.53
20015;BME280;61787;42.022;23.078;2023-11-19T01:26:50;96804.56;;;5.40;84.08
20015;BME280;61787;42.022;23.078;2023-11-19T01:27:51;96797.19;;;5.37;84.25
20015;BME280;61787;42.022;23.078;2023-11-19T01:28:53;96792.19;;;5.35;84.53
20015;BME280;61787;42.022;23.078;2023-11-19T01:29:55;96798.00;;;5.37;84.96
20015;BME280;61787;42.022;23.078;2023-11-19T01:30:56;96790.03;;;5.37;84.31
20015;BME280;61787;42.022;23.078;2023-11-19T01:31:58;96796.91;;;5.38;84.82
20015;BME280;61787;42.022;23.078;2023-11-19T01:33:00;96795.81;;;5.39;84.22
20015;BME280;61787;42.022;23.078;2023-11-19T01:34:01;96798.97;;;5.41;84.03
20015;BME280;61787;42.022;23.078;2023-11-19T01:35:04;96797.09;;;5.42;85.60
20015;BME280;61787;42.022;23.078;2023-11-19T01:36:06;96802.13;;;5.43;85.32
20015;BME280;61787;42.022;23.078;2023-11-19T01:37:09;96806.81;;;5.46;84.96
20015;BME280;61787;42.022;23.078;2023-11-19T01:38:11;96806.03;;;5.46;84.96
20015;BME280;61787;42.022;23.078;2023-11-19T01:39:13;96809.78;;;5.45;85.15
20015;BME280;61787;42.022;23.078;2023-11-19T01:40:21;96806.81;;;5.46;84.99
20015;BME280;61787;42.022;23.078;2023-11-19T01:41:23;96813.72;;;5.47;83.80
20015;BME280;61787;42.022;23.078;2023-11-19T01:42:26;96806.81;;;5.46;84.31
20015;BME280;61787;42.022;23.078;2023-11-19T01:43:36;96815.31;;;5.48;83.99
20015;BME280;61787;42.022;23.078;2023-11-19T01:44:38;96811.53;;;5.49;84.92
20015;BME280;61787;42.022;23.078;2023-11-19T01:45:40;96816.84;;;5.49;84.53
20015;BME280;61787;42.022;23.078;2023-11-19T01:46:44;96812.16;;;5.46;84.27
20015;BME280;61787;42.022;23.078;2023-11-19T01:47:50;96808.69;;;5.46;84.42
20015;BME280;61787;42.022;23.078;2023-11-19T01:48:53;96809.19;;;5.48;84.11
20015;BME280;61787;42.022;23.078;2023-11-19T01:49:56;96807.44;;;5.43;83.58
20015;BME280;61787;42.022;23.078;2023-11-19T01:50:58;96805.84;;;5.42;83.84
20015;BME280;61787;42.022;23.078;2023-11-19T01:52:04;96802.13;;;5.43;83.62
20015;BME280;61787;42.022;23.078;2023-11-19T01:53:06;96797.09;;;5.42;83.51
20015;BME280;61787;42.022;23.078;2023-11-19T01:54:08;96793.66;;;5.41;83.93
20015;BME280;61787;42.022;23.078;2023-11-19T01:55:10;96795.22;;;5.42;84.02
20015;BME280;61787;42.022;23.078;2023-11-19T01:56:14;96799.94;;;5.45;83.80
20015;BME280;61787;42.022;23.078;2023-11-19T01:57:17;96792.44;;;5.47;84.50
20015;BME280;61787;42.022;23.078;2023-11-19T01:58:19;96792.25;;;5.44;83.58
20015;BME280;61787;42.022;23.078;2023-11-19T01:59:21;96789.91;;;5.42;84.76
20015;BME280;61787;42.022;23.078;2023-11-19T02:00:28;96804.88;;;5.38;84.66
20015;BME280;61787;42.022;23.078;2023-11-19T02:01:29;96794.66;;;5.32;84.71
20015;BME280;61787;42.022;23.078;2023-11-19T02:02:31;96792.28;;;5.30;83.55
20015;BME280;61787;42.022;23.078;2023-11-19T02:03:34;96805.28;;;5.32;84.17
20015;BME280;61787;42.022;23.078;2023-11-19T02:04:36;96811.88;;;5.34;83.50
20015;BME280;61787;42.022;23.078;2023-11-19T02:05:39;96810.78;;;5.35;83.65
20015;BME280;61787;42.022;23.078;2023-11-19T02:06:41;96807.66;;;5.33;83.65
20015;BME280;61787;42.022;23.078;2023-11-19T02:07:44;96807.44;;;5.30;83.89
20015;BME280;61787;42.022;23.078;2023-11-19T02:08:47;96813.09;;;5.28;83.61
20015;BME280;61787;42.022;23.078;2023-11-19T02:09:49;96808.25;;;5.30;84.18
20015;BME280;61787;42.022;23.078;2023-11-19T02:10:50;96811.97;;;5.29;84.51
20015;BME280;61787;42.022;23.078;2023-11-19T02:11:53;96801.34;;;5.29;85.28
20015;BME280;61787;42.022;23.078;2023-11-19T02:12:56;96807.78;;;5.28;85.43
20015;BME280;61787;42.022;23.078;2023-11-19T02:14:07;96802.13;;;5.30;85.50
20015;BME280;61787;42.022;23.078;2023-11-19T02:15:09;96801.16;;;5.26;84.78
20015;BME280;61787;42.022;23.078;2023-11-19T02:16:11;96797.91;;;5.29;84.34
20015;BME280;61787;42.022;23.078;2023-11-19T02:17:26;96780.19;;;5.24;84.49
20015;BME280;61787;42.022;23.078;2023-11-19T02:18:29;96782.56;;;5.26;83.82
20015;BME280;61787;42.022;23.078;2023-11-19T02:19:31;96788.16;;;5.24;83.77
20015;BME280;61787;42.022;23.078;2023-11-19T02:20:32;96786.78;;;5.27;84.27
20015;BME280;61787;42.022;23.078;2023-11-19T02:21:34;96784.91;;;5.27;84.99
20015;BME280;61787;42.022;23.078;2023-11-19T02:22:35;96781.75;;;5.25;85.64
20015;BME280;61787;42.022;23.078;2023-11-19T02:23:37;96792.41;;;5.25;85.09
20015;BME280;61787;42.022;23.078;2023-11-19T02:24:39;96780.69;;;5.26;85.63
20015;BME280;61787;42.022;23.078;2023-11-19T02:25:41;96786.78;;;5.27;84.48
20015;BME280;61787;42.022;23.078;2023-11-19T02:28:50;96799.78;;;5.28;84.11
20015;BME280;61787;42.022;23.078;2023-11-19T02:29:51;96801.94;;;5.26;85.08
20015;BME280;61787;42.022;23.078;2023-11-19T02:30:53;96802.91;;;5.30;84.38
20015;BME280;61787;42.022;23.078;2023-11-19T02:31:55;96800.56;;;5.29;84.67
20015;BME280;61787;42.022;23.078;2023-11-19T02:33:01;96806.97;;;5.28;83.86
20015;BME280;61787;42.022;23.078;2023-11-19T02:34:07;96805.59;;;5.30;83.98
20015;BME280;61787;42.022;23.078;2023-11-19T02:35:08;96806.66;;;5.29;84.98
20015;BME280;61787;42.022;23.078;2023-11-19T02:36:10;96808.25;;;5.30;84.49
20015;BME280;61787;42.022;23.078;2023-11-19T02:37:12;96813.56;;;5.30;84.70
20015;BME280;61787;42.022;23.078;2023-11-19T02:38:16;96809.81;;;5.31;83.80
20015;BME280;61787;42.022;23.078;2023-11-19T02:39:17;96812.47;;;5.31;83.66
20015;BME280;61787;42.022;23.078;2023-11-19T02:40:23;96814.53;;;5.34;83.09
20015;BME280;61787;42.022;23.078;2023-11-19T02:41:27;96816.09;;;5.35;84.27
20015;BME280;61787;42.022;23.078;2023-11-19T02:42:29;96817.19;;;5.34;83.72
20015;BME280;61787;42.022;23.078;2023-11-19T02:43:32;96816.72;;;5.32;83.93
20015;BME280;61787;42.022;23.078;2023-11-19T02:44:34;96816.41;;;5.34;83.22
20015;BME280;61787;42.022;23.078;2023-11-19T02:45:36;96809.31;;;5.29;82.75
20015;BME280;61787;42.022;23.078;2023-11-19T02:46:38;96804.00;;;5.29;83.73
20015;BME280;61787;42.022;23.078;2023-11-19T02:47:40;96805.09;;;5.28;83.43
20015;BME280;61787;42.022;23.078;2023-11-19T02:48:43;96809.03;;;5.31;83.08
20015;BME280;61787;42.022;23.078;2023-11-19T02:49:46;96799.00;;;5.28;83.25
20015;BME280;61787;42.022;23.078;2023-11-19T02:50:48;96796.63;;;5.26;82.92
20015;BME280;61787;42.022;23.078;2023-11-19T02:51:49;96797.72;;;5.25;84.25
20015;BME280;61787;42.022;23.078;2023-11-19T02:52:55;96800.38;;;5.25;84.04
20015;BME280;61787;42.022;23.078;2023-11-19T02:54:00;96793.78;;;5.23;83.41
20015;BME280;61787;42.022;23.078;2023-11-19T02:55:02;96791.44;;;5.21;84.13
20015;BME280;61787;42.022;23.078;2023-11-19T02:56:04;96797.81;;;5.20;83.26
20015;BME280;61787;42.022;23.078;2023-11-19T02:57:31;96803.94;;;5.21;83.53
20015;BME280;61787;42.022;23.078;2023-11-19T02:58:33;96797.03;;;5.20;83.29
20015;BME280;61787;42.022;23.078;2023-11-19T02:59:39;96808.47;;;5.20;83.16
20015;BME280;61787;42.022;23.078;2023-11-19T03:00:42;96816.94;;;5.22;83.14
20015;BME280;61787;42.022;23.078;2023-11-19T03:01:54;96800.38;;;5.25;83.45
20015;BME280;61787;42.022;23.078;2023-11-19T03:02:56;96811.00;;;5.25;83.26
20015;BME280;61787;42.022;23.078;2023-11-19T03:04:01;96813.09;;;5.28;84.47
20015;BME280;61787;42.022;23.078;2023-11-19T03:05:05;96808.25;;;5.30;83.47
20015;BME280;61787;42.022;23.078;2023-11-19T03:06:07;96812.59;;;5.26;83.10
20015;BME280;61787;42.022;23.078;2023-11-19T03:07:10;96804.09;;;5.24;83.91
20015;BME280;61787;42.022;23.078;2023-11-19T03:08:12;96812.09;;;5.24;82.73
20015;BME280;61787;42.022;23.078;2023-11-19T03:09:24;96814.44;;;5.26;83.29
20015;BME280;61787;42.022;23.078;2023-11-19T03:10:26;96816.31;;;5.25;83.47
20015;BME280;61787;42.022;23.078;2023-11-19T03:11:27;96814.16;;;5.27;83.33
20015;BME280;61787;42.022;23.078;2023-11-19T03:12:29;96803.72;;;5.31;83.94
20015;BME280;61787;42.022;23.078;2023-11-19T03:13:31;96807.78;;;5.28;82.83
20015;BME280;61787;42.022;23.078;2023-11-19T03:14:33;96811.00;;;5.25;82.54
20015;BME280;61787;42.022;23.078;2023-11-19T03:15:36;96812.59;;;5.26;82.46
20015;BME280;61787;42.022;23.078;2023-11-19T03:16:37;96809.13;;;5.26;83.67
20015;BME280;61787;42.022;23.078;2023-11-19T03:17:40;96810.03;;;5.21;82.20
20015;BME280;61787;42.022;23.078;2023-11-19T03:18:42;96810.63;;;5.18;81.79
20015;BME280;61787;42.022;23.078;2023-11-19T03:19:44;96819.09;;;5.20;82.52
20015;BME280;61787;42.022;23.078;2023-11-19T03:20:48;96823.63;;;5.20;82.80
20015;BME280;61787;42.022;23.078;2023-11-19T03:21:51;96823.81;;;5.23;83.40
20015;BME280;61787;42.022;23.078;2023-11-19T03:22:52;96830.69;;;5.24;83.23
20015;BME280;61787;42.022;23.078;2023-11-19T03:23:54;96824.78;;;5.27;83.81
20015;BME280;61787;42.022;23.078;2023-11-19T03:24:56;96831.09;;;5.31;83.54
20015;BME280;61787;42.022;23.078;2023-11-19T03:25:58;96823.59;;;5.33;83.33
20015;BME280;61787;42.022;23.078;2023-11-19T03:27:00;96830.13;;;5.27;82.78
20015;BME280;61787;42.022;23.078;2023-11-19T03:28:03;96832.88;;;5.22;82.60
20015;BME280;61787;42.022;23.078;2023-11-19T03:29:05;96829.72;;;5.20;83.19
20015;BME280;61787;42.022;23.078;2023-11-19T03:30:07;96826.78;;;5.22;82.07
20015;BME280;61787;42.022;23.078;2023-11-19T03:31:10;96820.47;;;5.18;82.63
20015;BME280;61787;42.022;23.078;2023-11-19T03:32:12;96820.66;;;5.21;82.88
20015;BME280;61787;42.022;23.078;2023-11-19T03:33:14;96816.31;;;5.25;82.81
20015;BME280;61787;42.022;23.078;2023-11-19T03:34:16;96811.00;;;5.25;81.67
20015;BME280;61787;42.022;23.078;2023-11-19T03:35:17;96812.09;;;5.24;81.84
20015;BME280;61787;42.022;23.078;2023-11-19T03:36:19;96818.97;;;5.25;82.68
20015;BME280;61787;42.022;23.078;2023-11-19T03:37:20;96825.09;;;5.26;82.77
20015;BME280;61787;42.022;23.078;2023-11-19T03:38:23;96816.81;;;5.27;82.53
20015;BME280;61787;42.022;23.078;2023-11-19T03:39:25;96817.28;;;5.29;82.15
20015;BME280;61787;42.022;23.078;2023-11-19T03:40:28;96819.47;;;5.27;82.73
20015;BME280;61787;42.022;23.078;2023-11-19T03:41:30;96812.59;;;5.26;82.63
20015;BME280;61787;42.022;23.078;2023-11-19T03:42:42;96823.81;;;5.23;82.39
20015;BME280;61787;42.022;23.078;2023-11-19T03:43:45;96814.75;;;5.24;82.60
20015;BME280;61787;42.022;23.078;2023-11-19T03:44:47;96823.03;;;5.23;81.93
20015;BME280;61787;42.022;23.078;2023-11-19T03:45:50;96829.13;;;5.23;82.10
20015;BME280;61787;42.022;23.078;2023-11-19T03:46:52;96831.97;;;5.27;81.98
20015;BME280;61787;42.022;23.078;2023-11-19T03:47:54;96827.47;;;5.27;82.40
20015;BME280;61787;42.022;23.078;2023-11-19T03:48:56;96822.72;;;5.24;81.21
20015;BME280;61787;42.022;23.078;2023-11-19T03:49:57;96832.28;;;5.25;81.24
20015;BME280;61787;42.022;23.078;2023-11-19T03:50:59;96831.78;;;5.23;82.20
20015;BME280;61787;42.022;23.078;2023-11-19T03:52:00;96831.28;;;5.21;81.85
20015;BME280;61787;42.022;23.078;2023-11-19T03:53:03;96827.75;;;5.26;82.22
20015;BME280;61787;42.022;23.078;2023-11-19T03:54:06;96825.59;;;5.28;82.47
20015;BME280;61787;42.022;23.078;2023-11-19T03:55:08;96832.28;;;5.25;81.79
20015;BME280;61787;42.022;23.078;2023-11-19T03:56:10;96832.28;;;5.25;81.66
20015;BME280;61787;42.022;23.078;2023-11-19T03:57:13;96833.34;;;5.24;82.20
20015;BME280;61787;42.022;23.078;2023-11-19T03:58:15;96830.41;;;5.26;82.72
20015;BME280;61787;42.022;23.078;2023-11-19T03:59:16;96829.13;;;5.23;82.92
20015;BME280;61787;42.022;23.078;2023-11-19T04:00:18;96832.28;;;5.25;82.72
20015;BME280;61787;42.022;23.078;2023-11-19T04:01:22;96835.81;;;5.21;81.84
20015;BME280;61787;42.022;23.078;2023-11-19T04:02:24;96830.31;;;5.17;82.03
20015;BME280;61787;42.022;23.078;2023-11-19T04:03:29;96841.53;;;5.14;81.61
20015;BME280;61787;42.022;23.078;2023-11-19T04:04:30;96846.84;;;5.14;83.05
20015;BME280;61787;42.022;23.078;2023-11-19T04:05:32;96842.31;;;5.14;83.36
20015;BME280;61787;42.022;23.078;2023-11-19T04:06:34;96845.28;;;5.13;82.91
20015;BME280;61787;42.022;23.078;2023-11-19T04:07:35;96846.06;;;5.13;82.89
20015;BME280;61787;42.022;23.078;2023-11-19T04:08:37;96846.84;;;5.14;83.23
20015;BME280;61787;42.022;23.078;2023-11-19T04:09:39;96839.75;;;5.09;83.14
20015;BME280;61787;42.022;23.078;2023-11-19T04:10:41;96838.88;;;5.14;82.40
20015;BME280;61787;42.022;23.078;2023-11-19T04:11:42;96845.47;;;5.17;83.03
20015;BME280;61787;42.022;23.078;2023-11-19T04:12:44;96843.09;;;5.15;82.66
20015;BME280;61787;42.022;23.078;2023-11-19T04:13:46;96844.78;;;5.11;83.38
20015;BME280;61787;42.022;23.078;2023-11-19T04:14:47;96848.03;;;5.08;82.97
20015;BME280;61787;42.022;23.078;2023-11-19T04:16:02;96846.47;;;5.07;84.00
20015;BME280;61787;42.022;23.078;2023-11-19T04:17:04;96837.91;;;5.10;84.34
20015;BME280;61787;42.022;23.078;2023-11-19T04:18:05;96838.00;;;5.05;83.36
20015;BME280;61787;42.022;23.078;2023-11-19T04:19:07;96849.72;;;5.04;83.69
20015;BME280;61787;42.022;23.078;2023-11-19T04:20:09;96851.28;;;5.05;83.86
20015;BME280;61787;42.022;23.078;2023-11-19T04:21:14;96846.94;;;5.09;84.84
20015;BME280;61787;42.022;23.078;2023-11-19T04:22:16;96852.25;;;5.09;84.29
20015;BME280;61787;42.022;23.078;2023-11-19T04:23:18;96857.91;;;5.07;84.72
20015;BME280;61787;42.022;23.078;2023-11-19T04:24:20;96852.59;;;5.07;84.62
20015;BME280;61787;42.022;23.078;2023-11-19T04:25:21;96850.22;;;5.06;84.08
20015;BME280;61787;42.022;23.078;2023-11-19T04:26:23;96851.78;;;5.07;84.88
20015;BME280;61787;42.022;23.078;2023-11-19T04:27:25;96848.63;;;5.05;85.00
20015;BME280;61787;42.022;23.078;2023-11-19T04:28:26;96839.59;;;5.06;84.19
20015;BME280;61787;42.022;23.078;2023-11-19T04:29:29;96860.84;;;5.06;85.04
20015;BME280;61787;42.022;23.078;2023-11-19T04:30:32;96850.69;;;5.08;84.29
20015;BME280;61787;42.022;23.078;2023-11-19T04:31:33;96849.13;;;5.07;84.10
20015;BME280;61787;42.022;23.078;2023-11-19T04:32:35;96852.88;;;5.06;83.56
20015;BME280;61787;42.022;23.078;2023-11-19T04:33:37;96863.78;;;5.04;84.80
20015;BME280;61787;42.022;23.078;2023-11-19T04:34:39;96854.44;;;5.07;84.18
20015;BME280;61787;42.022;23.078;2023-11-19T04:35:40;96863.22;;;5.07;84.77
20015;BME280;61787;42.022;23.078;2023-11-19T04:36:43;96860.06;;;5.05;84.23
20015;BME280;61787;42.022;23.078;2023-11-19T04:37:45;96865.66;;;5.04;84.21
20015;BME280;61787;42.022;23.078;2023-11-19T04:38:47;96858.75;;;5.03;84.60
20015;BME280;61787;42.022;23.078;2023-11-19T04:39:48;96859.25;;;5.05;84.43
20015;BME280;61787;42.022;23.078;2023-11-19T04:40:50;96857.09;;;5.07;84.30
20015;BME280;61787;42.022;23.078;2023-11-19T04:41:52;96854.91;;;5.09;85.21
20015;BME280;61787;42.022;23.078;2023-11-19T04:42:54;96854.63;;;5.10;84.65
20015;BME280;61787;42.022;23.078;2023-11-19T04:43:56;96859.16;;;5.10;84.33
20015;BME280;61787;42.022;23.078;2023-11-19T04:44:57;96858.56;;;5.13;85.25
20015;BME280;61787;42.022;23.078;2023-11-19T04:45:59;96861.22;;;5.13;84.51
20015;BME280;61787;42.022;23.078;2023-11-19T04:47:01;96866.53;;;5.13;84.49
20015;BME280;61787;42.022;23.078;2023-11-19T04:48:03;96868.44;;;5.12;84.52
20015;BME280;61787;42.022;23.078;2023-11-19T04:49:04;96868.72;;;5.11;83.81
20015;BME280;61787;42.022;23.078;2023-11-19T04:50:07;96865.78;;;5.12;85.05
20015;BME280;61787;42.022;23.078;2023-11-19T04:51:12;96873.25;;;5.10;84.11
20015;BME280;61787;42.022;23.078;2023-11-19T04:52:14;96874.03;;;5.11;84.57
20015;BME280;61787;42.022;23.078;2023-11-19T04:53:15;96874.81;;;5.11;84.35
20015;BME280;61787;42.022;23.078;2023-11-19T04:54:17;96877.47;;;5.11;85.12
20015;BME280;61787;42.022;23.078;2023-11-19T04:55:20;96869.69;;;5.15;85.04
20015;BME280;61787;42.022;23.078;2023-11-19T04:56:21;96878.16;;;5.17;84.64
20015;BME280;61787;42.022;23.078;2023-11-19T04:57:24;96877.84;;;5.19;85.55
20015;BME280;61787;42.022;23.078;2023-11-19T04:58:28;96882.88;;;5.20;84.80
20015;BME280;61787;42.022;23.078;2023-11-19T04:59:30;96873.31;;;5.19;84.04
20015;BME280;61787;42.022;23.078;2023-11-19T05:00:32;96866.47;;;5.18;83.96
20015;BME280;61787;42.022;23.078;2023-11-19T05:01:34;96873.63;;;5.18;84.16
20015;BME280;61787;42.022;23.078;2023-11-19T05:02:36;96868.22;;;5.23;84.79
20015;BME280;61787;42.022;23.078;2023-11-19T05:03:38;96867.91;;;5.24;84.38
20015;BME280;61787;42.022;23.078;2023-11-19T05:04:43;96864.78;;;5.22;83.80
20015;BME280;61787;42.022;23.078;2023-11-19T05:05:46;96863.19;;;5.21;84.34
20015;BME280;61787;42.022;23.078;2023-11-19T05:06:47;96860.03;;;5.19;83.96
20015;BME280;61787;42.022;23.078;2023-11-19T05:07:49;96866.47;;;5.18;84.16
20015;BME280;61787;42.022;23.078;2023-11-19T05:08:50;96860.63;;;5.16;84.51
20015;BME280;61787;42.022;23.078;2023-11-19T05:09:52;96864.28;;;5.20;84.47
20015;BME280;61787;42.022;23.078;2023-11-19T05:10:54;96854.72;;;5.19;84.99
20015;BME280;61787;42.022;23.078;2023-11-19T05:11:56;96856.28;;;5.20;85.37
20015;BME280;61787;42.022;23.078;2023-11-19T05:12:57;96856.91;;;5.17;85.25
20015;BME280;61787;42.022;23.078;2023-11-19T05:13:59;96857.47;;;5.14;84.96
20015;BME280;61787;42.022;23.078;2023-11-19T05:15:01;96868.09;;;5.14;84.98
20015;BME280;61787;42.022;23.078;2023-11-19T05:16:03;96859.06;;;5.15;85.05
20015;BME280;61787;42.022;23.078;2023-11-19T05:17:05;96868.91;;;5.14;85.10
20015;BME280;61787;42.022;23.078;2023-11-19T05:18:06;96864.19;;;5.11;84.80
20015;BME280;61787;42.022;23.078;2023-11-19T05:19:08;96866.53;;;5.13;85.74
20015;BME280;61787;42.022;23.078;2023-11-19T05:20:13;96877.16;;;5.13;85.07
20015;BME280;61787;42.022;23.078;2023-11-19T05:21:15;96877.16;;;5.13;85.73
20015;BME280;61787;42.022;23.078;2023-11-19T05:22:18;96878.44;;;5.15;85.75
20015;BME280;61787;42.022;23.078;2023-11-19T05:23:22;96884.06;;;5.14;85.66
20015;BME280;61787;42.022;23.078;2023-11-19T05:24:23;96886.25;;;5.12;85.63
20015;BME280;61787;42.022;23.078;2023-11-19T05:25:25;96884.66;;;5.11;84.90
20015;BME280;61787;42.022;23.078;2023-11-19T05:26:28;96888.41;;;5.10;85.19
20015;BME280;61787;42.022;23.078;2023-11-19T05:27:29;96887.78;;;5.13;85.18
20015;BME280;61787;42.022;23.078;2023-11-19T05:28:31;96882.47;;;5.13;85.19
20015;BME280;61787;42.022;23.078;2023-11-19T05:29:33;96890.75;;;5.11;85.24
20015;BME280;61787;42.022;23.078;2023-11-19T05:30:35;96888.41;;;5.10;84.75
20015;BME280;61787;42.022;23.078;2023-11-19T05:31:36;96891.56;;;5.12;84.99
20015;BME280;61787;42.022;23.078;2023-11-19T05:32:40;96899.81;;;5.10;85.08
20015;BME280;61787;42.022;23.078;2023-11-19T05:33:41;96889.47;;;5.09;84.88